createdAt,value
2022-08-17T00:01:41.485Z,50.79
2022-08-17T00:04:19.337Z,50.75
2022-08-17T00:06:49.029Z,50.95
2022-08-17T00:09:18.808Z,51.03
2022-08-17T00:12:41.652Z,50.94
2022-08-17T00:14:36.386Z,50.89
2022-08-17T00:17:06.372Z,50.80
2022-08-17T00:19:34.049Z,50.89
2022-08-17T00:22:31.288Z,51.34
2022-08-17T00:24:50.520Z,50.76
2022-08-17T00:27:18.168Z,50.91
2022-08-17T00:29:46.826Z,50.95
2022-08-17T00:33:12.285Z,50.87
2022-08-17T00:35:07.721Z,50.83
2022-08-17T00:37:35.202Z,51.03
2022-08-17T00:40:02.733Z,50.70
2022-08-17T00:42:31.218Z,50.98
2022-08-17T00:44:59.155Z,51.20
2022-08-17T00:47:27.987Z,50.82
2022-08-17T00:49:55.490Z,51.33
2022-08-17T00:52:23.874Z,51.00
2022-08-17T00:54:52.699Z,50.90
2022-08-17T00:57:21.171Z,51.17
2022-08-17T01:00:01.802Z,51.25
2022-08-17T01:02:41.594Z,51.08
2022-08-17T01:05:10.118Z,51.01
2022-08-17T01:07:37.993Z,50.97
2022-08-17T01:10:06.906Z,50.88
2022-08-17T01:12:34.983Z,51.24
2022-08-17T01:15:02.444Z,51.17
2022-08-17T01:17:29.905Z,51.32
2022-08-17T01:19:59.040Z,51.00
2022-08-17T01:22:27.773Z,51.00
2022-08-17T01:24:57.958Z,51.16
2022-08-17T01:27:26.080Z,51.14
2022-08-17T01:29:57.837Z,51.43
2022-08-17T01:32:25.382Z,51.51
2022-08-17T01:34:52.985Z,51.27
2022-08-17T01:37:20.749Z,51.57
2022-08-17T01:39:51.471Z,51.34
2022-08-17T01:42:21.808Z,51.67
2022-08-17T01:44:49.248Z,51.37
2022-08-17T01:47:16.696Z,51.36
2022-08-17T01:49:45.092Z,51.41
2022-08-17T01:52:12.946Z,51.13
2022-08-17T01:54:41.309Z,51.25
2022-08-17T01:57:10.278Z,51.54
2022-08-17T01:59:37.840Z,51.61
2022-08-17T02:02:07.218Z,51.25
2022-08-17T02:04:34.687Z,51.33
2022-08-17T02:07:02.142Z,51.46
2022-08-17T02:09:32.141Z,51.68
2022-08-17T02:12:00.324Z,51.16
2022-08-17T02:14:49.052Z,51.54
2022-08-17T02:17:16.497Z,51.51
2022-08-17T02:19:43.981Z,51.64
2022-08-17T02:22:11.819Z,51.59
2022-08-17T02:24:58.875Z,51.37
2022-08-17T02:27:26.714Z,51.30
2022-08-17T02:29:55.450Z,51.49
2022-08-17T02:32:28.465Z,51.22
2022-08-17T02:34:56.592Z,51.57
2022-08-17T02:37:24.045Z,51.49
2022-08-17T02:39:51.531Z,51.54
2022-08-17T02:42:19.046Z,51.23
2022-08-17T02:44:46.629Z,51.06
2022-08-17T02:47:15.728Z,51.03
2022-08-17T02:49:47.539Z,51.16
2022-08-17T02:52:43.162Z,51.41
2022-08-17T02:55:12.651Z,51.52
2022-08-17T02:57:40.147Z,51.14
2022-08-17T03:00:11.206Z,51.12
2022-08-17T03:02:40.249Z,51.36
2022-08-17T03:05:08.589Z,51.13
2022-08-17T03:07:36.526Z,51.01
2022-08-17T03:10:04.397Z,51.26
2022-08-17T03:12:33.392Z,51.00
2022-08-17T03:15:03.799Z,51.17
2022-08-17T03:17:31.320Z,51.31
2022-08-17T03:20:00.354Z,51.07
2022-08-17T03:22:36.010Z,51.43
2022-08-17T03:25:06.690Z,51.06
2022-08-17T03:27:38.458Z,51.15
2022-08-17T03:30:10.609Z,51.42
2022-08-17T03:32:38.491Z,51.29
2022-08-17T03:35:07.958Z,51.59
2022-08-17T03:37:35.438Z,51.33
2022-08-17T03:40:03.139Z,51.50
2022-08-17T03:42:31.941Z,51.27
2022-08-17T03:45:00.666Z,51.15
2022-08-17T03:47:45.901Z,51.53
2022-08-17T03:50:38.069Z,51.40
2022-08-17T03:53:24.932Z,51.37
2022-08-17T03:56:10.306Z,51.42
2022-08-17T03:58:37.872Z,51.61
2022-08-17T04:01:05.646Z,51.68
2022-08-17T04:03:33.192Z,51.44
2022-08-17T04:06:02.174Z,51.39
2022-08-17T04:08:29.665Z,51.58
2022-08-17T04:10:57.230Z,51.35
2022-08-17T04:13:25.493Z,51.48
2022-08-17T04:15:53.211Z,51.54
2022-08-17T04:18:20.654Z,51.37
2022-08-17T04:20:48.099Z,51.72
2022-08-17T04:23:17.936Z,51.42
2022-08-17T04:25:48.127Z,51.35
2022-08-17T04:28:16.542Z,51.58
2022-08-17T04:30:45.041Z,51.58
2022-08-17T04:33:14.011Z,51.58
2022-08-17T04:35:43.031Z,51.69
2022-08-17T04:38:13.671Z,51.52
2022-08-17T04:41:00.250Z,51.48
2022-08-17T04:43:28.025Z,51.52
2022-08-17T04:45:57.161Z,51.48
2022-08-17T04:48:29.589Z,51.50
2022-08-17T04:51:05.654Z,51.39
2022-08-17T04:53:33.127Z,51.57
2022-08-17T04:56:01.857Z,51.76
2022-08-17T04:58:29.354Z,51.95
2022-08-17T05:00:56.911Z,51.88
2022-08-17T05:03:24.393Z,52.06
2022-08-17T05:05:51.844Z,52.02
2022-08-17T05:08:19.933Z,52.12
2022-08-17T05:10:47.821Z,52.51
2022-08-17T05:13:17.647Z,52.34
2022-08-17T05:15:47.824Z,52.50
2022-08-17T05:18:15.530Z,52.23
2022-08-17T05:20:43.057Z,52.32
2022-08-17T05:23:11.546Z,53.03
2022-08-17T05:25:40.765Z,52.88
2022-08-17T05:28:08.504Z,52.52
2022-08-17T05:30:38.427Z,53.15
2022-08-17T05:33:07.468Z,53.50
2022-08-17T05:35:35.988Z,53.43
2022-08-17T05:38:03.604Z,53.11
2022-08-17T05:40:32.780Z,52.69
2022-08-17T05:43:08.390Z,52.72
2022-08-17T05:45:54.370Z,52.82
2022-08-17T05:48:22.497Z,52.84
2022-08-17T05:51:13.803Z,52.85
2022-08-17T05:53:45.217Z,53.02
2022-08-17T05:56:29.435Z,53.03
2022-08-17T05:59:00.929Z,52.98
2022-08-17T06:01:34.465Z,53.17
2022-08-17T06:04:06.490Z,53.04
2022-08-17T06:06:39.776Z,53.03
2022-08-17T06:09:28.815Z,52.99
2022-08-17T06:12:01.358Z,53.28
2022-08-17T06:14:35.673Z,53.09
2022-08-17T06:17:06.965Z,52.86
2022-08-17T06:19:37.965Z,53.01
2022-08-17T06:22:06.152Z,53.30
2022-08-17T06:24:35.803Z,53.23
2022-08-17T06:27:07.661Z,53.57
2022-08-17T06:29:38.559Z,53.82
2022-08-17T06:32:09.223Z,53.72
2022-08-17T06:34:39.889Z,53.85
2022-08-17T06:37:12.336Z,53.91
2022-08-17T06:39:47.525Z,53.66
2022-08-17T06:43:02.597Z,53.63
2022-08-17T06:45:09.768Z,53.39
2022-08-17T06:47:42.616Z,53.21
2022-08-17T06:50:14.426Z,52.97
2022-08-17T06:52:47.590Z,53.19
2022-08-17T06:55:18.913Z,53.08
2022-08-17T06:57:47.833Z,52.56
2022-08-17T07:00:16.695Z,52.81
2022-08-17T07:03:02.681Z,52.70
2022-08-17T07:05:32.735Z,52.47
2022-08-17T07:08:02.423Z,52.06
2022-08-17T07:10:31.450Z,52.00
2022-08-17T07:13:14.821Z,51.91
2022-08-17T07:15:43.249Z,52.07
2022-08-17T07:18:12.028Z,52.07
2022-08-17T07:20:40.275Z,51.85
2022-08-17T07:23:13.255Z,52.03
2022-08-17T07:25:40.891Z,51.72
2022-08-17T07:28:08.325Z,51.94
2022-08-17T07:30:47.129Z,51.75
2022-08-17T07:33:20.115Z,51.55
2022-08-17T07:35:48.361Z,51.82
2022-08-17T07:38:24.660Z,51.46
2022-08-17T07:41:02.308Z,51.42
2022-08-17T07:43:31.154Z,51.39
2022-08-17T07:46:22.828Z,51.19
2022-08-17T07:48:52.914Z,51.30
2022-08-17T07:51:26.082Z,50.69
2022-08-17T07:53:54.157Z,50.13
2022-08-17T07:56:37.755Z,50.49
2022-08-17T07:59:11.119Z,50.40
2022-08-17T08:01:41.845Z,50.37
2022-08-17T08:04:25.862Z,49.90
2022-08-17T08:07:12.165Z,49.70
2022-08-17T08:09:41.779Z,50.47
2022-08-17T08:12:28.960Z,50.01
2022-08-17T08:15:02.894Z,48.55
2022-08-17T08:17:35.450Z,48.21
2022-08-17T08:20:51.029Z,48.21
2022-08-17T08:22:57.924Z,47.60
2022-08-17T08:25:40.813Z,46.75
2022-08-17T08:28:15.296Z,47.28
2022-08-17T08:30:44.596Z,47.74
2022-08-17T08:33:32.898Z,47.22
2022-08-17T08:36:04.721Z,46.89
2022-08-17T08:38:37.632Z,46.79
2022-08-17T08:41:12.875Z,47.21
2022-08-17T08:43:45.190Z,46.72
2022-08-17T08:46:22.999Z,46.49
2022-08-17T08:49:10.069Z,46.19
2022-08-17T08:51:46.928Z,45.93
2022-08-17T08:54:26.650Z,45.90
2022-08-17T08:57:22.331Z,45.36
2022-08-17T08:59:57.944Z,45.14
2022-08-17T09:02:35.575Z,45.00
2022-08-17T09:05:18.355Z,44.62
2022-08-17T09:07:50.688Z,44.57
2022-08-17T09:10:26.601Z,44.05
2022-08-17T09:12:57.548Z,43.72
2022-08-17T09:15:27.501Z,43.63
2022-08-17T09:18:28.526Z,43.79
2022-08-17T09:20:50.341Z,43.90
2022-08-17T09:23:26.213Z,43.82
2022-08-17T09:25:58.200Z,43.65
2022-08-17T09:28:29.723Z,44.04
2022-08-17T09:31:04.115Z,44.40
2022-08-17T09:33:32.932Z,43.64
2022-08-17T09:36:02.542Z,43.98
2022-08-17T09:38:34.299Z,43.76
2022-08-17T09:41:05.891Z,43.75
2022-08-17T09:43:37.238Z,43.16
2022-08-17T09:46:07.921Z,43.44
2022-08-17T09:48:38.158Z,43.59
2022-08-17T09:51:07.941Z,44.09
2022-08-17T09:53:37.960Z,44.19
2022-08-17T09:56:19.223Z,44.30
2022-08-17T09:58:56.389Z,43.62
2022-08-17T10:01:29.365Z,43.31
2022-08-17T10:04:06.260Z,42.50
2022-08-17T10:06:36.394Z,42.34
2022-08-17T10:09:08.871Z,43.01
2022-08-17T10:11:55.208Z,43.46
2022-08-17T10:14:36.284Z,42.65
2022-08-17T10:17:09.785Z,43.26
2022-08-17T10:19:38.844Z,42.96
2022-08-17T10:22:38.155Z,43.03
2022-08-17T10:25:37.608Z,41.94
2022-08-17T10:28:19.923Z,42.30
2022-08-17T10:30:49.357Z,42.53
2022-08-17T10:33:19.690Z,42.63
2022-08-17T10:35:53.086Z,42.44
2022-08-17T10:38:41.615Z,42.25
2022-08-17T10:41:21.831Z,41.90
2022-08-17T10:44:38.694Z,42.25
2022-08-17T10:46:55.618Z,42.28
2022-08-17T10:49:33.942Z,42.29
2022-08-17T10:52:02.889Z,42.28
2022-08-17T10:54:49.823Z,42.04
2022-08-17T10:57:38.709Z,42.40
2022-08-17T11:00:10.195Z,42.83
2022-08-17T11:02:50.839Z,42.02
2022-08-17T11:05:50.264Z,41.76
2022-08-17T11:08:47.804Z,42.08
2022-08-17T11:11:23.557Z,42.18
2022-08-17T11:14:00.461Z,42.45
2022-08-17T11:16:37.567Z,41.54
2022-08-17T11:19:33.763Z,40.93
2022-08-17T11:22:18.464Z,40.78
2022-08-17T11:24:47.680Z,40.26
2022-08-17T11:27:24.766Z,40.38
2022-08-17T11:30:01.572Z,39.85
2022-08-17T11:32:33.866Z,39.84
2022-08-17T11:35:30.490Z,39.87
2022-08-17T11:38:15.046Z,39.52
2022-08-17T11:41:16.487Z,39.86
2022-08-17T11:44:02.856Z,39.59
2022-08-17T11:46:51.784Z,39.74
2022-08-17T11:49:39.138Z,39.88
2022-08-17T11:52:16.199Z,39.80
2022-08-17T11:54:45.899Z,39.52
2022-08-17T11:58:05.810Z,39.86
2022-08-17T12:00:51.250Z,39.64
2022-08-17T12:03:42.279Z,39.76
2022-08-17T12:06:30.678Z,39.81
2022-08-17T12:09:01.769Z,40.34
2022-08-17T12:12:01.706Z,40.33
2022-08-17T12:14:32.254Z,40.50
2022-08-17T12:17:10.894Z,40.69
2022-08-17T12:19:40.007Z,40.24
2022-08-17T12:22:09.709Z,40.22
2022-08-17T12:24:44.658Z,40.17
2022-08-17T12:27:12.243Z,39.97
2022-08-17T12:29:43.753Z,39.86
2022-08-17T12:32:17.404Z,39.83
2022-08-17T12:34:46.599Z,40.17
2022-08-17T12:37:15.574Z,39.76
2022-08-17T12:39:51.131Z,39.91
2022-08-17T12:42:24.064Z,40.15
2022-08-17T12:44:52.565Z,40.82
2022-08-17T12:47:22.875Z,39.90
2022-08-17T12:49:52.392Z,40.20
2022-08-17T12:52:23.612Z,39.43
2022-08-17T12:54:54.434Z,39.68
2022-08-17T12:57:23.300Z,40.20
2022-08-17T12:59:53.225Z,39.79
2022-08-17T13:02:32.850Z,40.10
2022-08-17T13:05:01.752Z,40.00
2022-08-17T13:07:31.229Z,39.88
2022-08-17T13:09:58.769Z,39.60
2022-08-17T13:12:33.683Z,39.76
2022-08-17T13:15:01.211Z,39.70
2022-08-17T13:17:30.647Z,39.81
2022-08-17T13:19:58.154Z,39.76
2022-08-17T13:22:28.499Z,39.25
2022-08-17T13:24:57.316Z,39.42
2022-08-17T13:27:25.956Z,39.36
2022-08-17T13:29:57.228Z,39.53
2022-08-17T13:32:33.832Z,39.53
2022-08-17T13:35:14.155Z,39.65
2022-08-17T13:37:58.824Z,39.50
2022-08-17T13:40:30.239Z,39.52
2022-08-17T13:42:57.794Z,39.37
2022-08-17T13:45:39.147Z,39.64
2022-08-17T13:48:08.350Z,39.64
2022-08-17T13:50:35.852Z,39.25
2022-08-17T13:53:04.790Z,39.63
2022-08-17T13:55:32.310Z,39.33
2022-08-17T13:58:03.612Z,39.59
2022-08-17T14:00:36.207Z,38.95
2022-08-17T14:03:04.684Z,38.62
2022-08-17T14:05:32.378Z,38.95
2022-08-17T14:08:01.317Z,39.03
2022-08-17T14:10:30.264Z,38.99
2022-08-17T14:12:57.836Z,38.92
2022-08-17T14:15:55.884Z,39.04
2022-08-17T14:18:17.649Z,38.96
2022-08-17T14:20:45.119Z,39.06
2022-08-17T14:23:15.014Z,39.58
2022-08-17T14:25:45.719Z,39.34
2022-08-17T14:28:13.208Z,39.09
2022-08-17T14:30:40.774Z,39.08
2022-08-17T14:33:08.333Z,39.24
2022-08-17T14:35:36.737Z,39.33
2022-08-17T14:38:04.182Z,39.39
2022-08-17T14:40:33.190Z,39.85
2022-08-17T14:43:02.086Z,39.81
2022-08-17T14:45:32.227Z,39.60
2022-08-17T14:48:01.822Z,39.75
2022-08-17T14:50:29.290Z,39.51
2022-08-17T14:52:58.128Z,39.31
2022-08-17T14:55:26.572Z,39.53
2022-08-17T14:57:54.042Z,39.63
2022-08-17T15:00:22.835Z,39.22
2022-08-17T15:02:53.540Z,39.66
2022-08-17T15:05:21.040Z,39.39
2022-08-17T15:07:48.495Z,39.17
2022-08-17T15:10:16.315Z,39.23
2022-08-17T15:12:43.753Z,39.47
2022-08-17T15:15:13.770Z,39.32
2022-08-17T15:17:45.972Z,39.44
2022-08-17T15:20:27.508Z,39.32
2022-08-17T15:22:56.187Z,39.17
2022-08-17T15:25:23.816Z,38.67
2022-08-17T15:27:51.547Z,38.81
2022-08-17T15:30:19.303Z,38.93
2022-08-17T15:32:54.320Z,38.84
2022-08-17T15:35:27.054Z,38.73
2022-08-17T15:37:57.011Z,38.58
2022-08-17T15:40:25.008Z,38.81
2022-08-17T15:42:52.638Z,38.56
2022-08-17T15:45:22.500Z,38.29
2022-08-17T15:47:51.881Z,38.39
2022-08-17T15:50:19.495Z,38.41
2022-08-17T15:52:47.483Z,38.32
2022-08-17T15:55:15.182Z,38.88
2022-08-17T15:57:42.616Z,38.85
2022-08-17T16:00:10.993Z,38.72
2022-08-17T16:03:45.668Z,38.92
2022-08-17T16:05:31.148Z,38.92
2022-08-17T16:07:59.503Z,39.27
2022-08-17T16:10:34.784Z,39.01
2022-08-17T16:13:03.283Z,39.35
2022-08-17T16:15:31.164Z,39.05
2022-08-17T16:17:58.619Z,39.47
2022-08-17T16:20:26.092Z,39.25
2022-08-17T16:22:55.240Z,39.31
2022-08-17T16:25:52.183Z,39.49
2022-08-17T16:28:11.325Z,39.30
2022-08-17T16:30:39.116Z,39.24
2022-08-17T16:33:06.580Z,39.54
2022-08-17T16:35:34.019Z,39.65
2022-08-17T16:38:02.894Z,40.03
2022-08-17T16:40:31.322Z,39.81
2022-08-17T16:43:03.777Z,39.61
2022-08-17T16:45:39.936Z,39.58
2022-08-17T16:48:07.565Z,39.94
2022-08-17T16:50:35.071Z,39.98
2022-08-17T16:53:08.388Z,39.94
2022-08-17T16:55:36.374Z,40.29
2022-08-17T16:58:04.420Z,39.78
2022-08-17T17:00:33.317Z,40.37
2022-08-17T17:03:19.399Z,40.24
2022-08-17T17:05:57.828Z,40.44
2022-08-17T17:08:28.372Z,40.50
2022-08-17T17:10:56.622Z,40.90
2022-08-17T17:13:27.360Z,41.02
2022-08-17T17:15:58.331Z,40.66
2022-08-17T17:18:30.408Z,41.10
2022-08-17T17:20:58.048Z,41.00
2022-08-17T17:23:38.189Z,41.03
2022-08-17T17:26:21.675Z,40.99
2022-08-17T17:28:57.144Z,41.23
2022-08-17T17:31:25.264Z,41.51
2022-08-17T17:33:53.905Z,41.50
2022-08-17T17:36:24.851Z,41.60
2022-08-17T17:38:55.515Z,41.58
2022-08-17T17:41:26.553Z,42.06
2022-08-17T17:44:10.839Z,42.11
2022-08-17T17:46:40.445Z,41.75
2022-08-17T17:49:10.125Z,41.94
2022-08-17T17:52:08.874Z,42.19
2022-08-17T17:54:36.130Z,42.15
2022-08-17T17:57:05.472Z,42.58
2022-08-17T17:59:43.343Z,42.58
2022-08-17T18:02:40.807Z,42.40
2022-08-17T18:05:11.812Z,42.66
2022-08-17T18:07:41.152Z,42.78
2022-08-17T18:10:29.356Z,43.01
2022-08-17T18:13:00.543Z,42.79
2022-08-17T18:15:30.396Z,42.88
2022-08-17T18:18:24.178Z,42.83
2022-08-17T18:20:56.024Z,42.96
2022-08-17T18:23:28.226Z,43.17
2022-08-17T18:25:58.577Z,43.42
2022-08-17T18:28:28.191Z,43.37
2022-08-17T18:31:11.592Z,43.14
2022-08-17T18:33:39.208Z,43.43
2022-08-17T18:36:06.949Z,43.71
2022-08-17T18:38:35.854Z,43.58
2022-08-17T18:41:08.051Z,43.53
2022-08-17T18:43:44.400Z,43.98
2022-08-17T18:46:29.283Z,43.70
2022-08-17T18:48:59.371Z,44.10
2022-08-17T18:51:40.725Z,43.95
2022-08-17T18:54:16.126Z,44.27
2022-08-17T18:56:45.971Z,44.32
2022-08-17T18:59:23.308Z,44.41
2022-08-17T19:02:10.231Z,44.49
2022-08-17T19:04:42.178Z,44.23
2022-08-17T19:07:26.748Z,44.53
2022-08-17T19:09:56.880Z,44.17
2022-08-17T19:12:30.016Z,44.59
2022-08-17T19:14:57.531Z,44.41
2022-08-17T19:17:28.640Z,44.78
2022-08-17T19:19:58.740Z,44.61
2022-08-17T19:22:28.660Z,44.70
2022-08-17T19:25:03.759Z,44.90
2022-08-17T19:27:43.691Z,44.70
2022-08-17T19:30:14.681Z,44.92
2022-08-17T19:32:42.200Z,45.01
2022-08-17T19:35:16.664Z,44.79
2022-08-17T19:37:51.731Z,45.66
2022-08-17T19:40:49.008Z,46.11
2022-08-17T19:43:15.643Z,46.51
2022-08-17T19:45:49.198Z,46.58
2022-08-17T19:48:21.930Z,46.63
2022-08-17T19:50:54.155Z,46.73
2022-08-17T19:53:41.724Z,46.39
2022-08-17T19:56:19.741Z,46.70
2022-08-17T19:58:57.648Z,46.81
2022-08-17T20:01:34.554Z,46.69
2022-08-17T20:04:07.293Z,47.07
2022-08-17T20:06:35.599Z,47.06
2022-08-17T20:09:05.117Z,47.09
2022-08-17T20:11:34.423Z,47.20
2022-08-17T20:14:05.172Z,47.17
2022-08-17T20:16:32.959Z,46.99
2022-08-17T20:19:01.306Z,47.10
2022-08-17T20:21:32.065Z,47.33
2022-08-17T20:24:01.152Z,46.96
2022-08-17T20:26:29.463Z,47.46
2022-08-17T20:29:09.973Z,47.08
2022-08-17T20:31:45.467Z,47.16
2022-08-17T20:34:33.715Z,47.35
2022-08-17T20:37:07.802Z,47.34
2022-08-17T20:39:39.174Z,46.96
2022-08-17T20:42:10.530Z,47.31
2022-08-17T20:44:40.093Z,47.08
2022-08-17T20:47:10.424Z,47.17
2022-08-17T20:49:48.330Z,47.22
2022-08-17T20:52:36.345Z,46.61
2022-08-17T20:55:05.420Z,47.25
2022-08-17T20:57:48.893Z,47.16
2022-08-17T21:00:45.415Z,47.35
2022-08-17T21:03:51.811Z,47.04
2022-08-17T21:06:22.072Z,47.26
2022-08-17T21:08:53.356Z,47.25
2022-08-17T21:12:03.876Z,47.31
2022-08-17T21:14:56.356Z,47.31
2022-08-17T21:17:45.209Z,47.43
2022-08-17T21:20:26.191Z,47.45
2022-08-17T21:23:01.720Z,47.37
2022-08-17T21:25:42.491Z,47.00
2022-08-17T21:28:14.376Z,47.19
2022-08-17T21:30:50.034Z,47.45
2022-08-17T21:33:25.215Z,47.09
2022-08-17T21:35:54.199Z,47.27
2022-08-17T21:38:35.249Z,47.37
2022-08-17T21:41:02.757Z,47.29
2022-08-17T21:43:33.172Z,47.59
2022-08-17T21:46:07.635Z,47.25
2022-08-17T21:48:42.291Z,47.48
2022-08-17T21:51:12.119Z,47.40
2022-08-17T21:53:44.029Z,47.45
2022-08-17T21:56:12.444Z,47.31
2022-08-17T21:58:45.405Z,47.17
2022-08-17T22:01:23.616Z,47.48
2022-08-17T22:04:00.307Z,47.48
2022-08-17T22:06:29.305Z,47.42
2022-08-17T22:09:01.326Z,47.67
2022-08-17T22:11:28.782Z,47.66
2022-08-17T22:14:05.550Z,47.44
2022-08-17T22:16:33.583Z,47.60
2022-08-17T22:19:01.040Z,47.41
2022-08-17T22:21:28.481Z,47.67
2022-08-17T22:24:06.443Z,47.34
2022-08-17T22:27:00.614Z,46.99
2022-08-17T22:29:54.340Z,47.34
2022-08-17T22:32:40.787Z,47.37
2022-08-17T22:35:33.579Z,47.35
2022-08-17T22:38:29.820Z,47.28
2022-08-17T22:41:13.571Z,47.32
2022-08-17T22:43:41.538Z,47.26
2022-08-17T22:46:14.856Z,47.30
2022-08-17T22:48:47.643Z,47.48
2022-08-17T22:51:15.871Z,47.38
2022-08-17T22:54:04.202Z,47.03
2022-08-17T22:56:49.241Z,47.23
2022-08-17T22:59:33.565Z,47.18
2022-08-17T23:02:14.636Z,47.32
2022-08-17T23:04:43.207Z,47.08
2022-08-17T23:07:10.781Z,47.15
2022-08-17T23:09:38.851Z,47.46
2022-08-17T23:12:08.050Z,47.20
2022-08-17T23:14:39.214Z,47.50
2022-08-17T23:17:07.224Z,47.79
2022-08-17T23:19:35.949Z,47.45
2022-08-17T23:22:04.295Z,47.77
2022-08-17T23:24:35.626Z,47.76
2022-08-17T23:27:03.499Z,47.27
2022-08-17T23:29:30.961Z,47.38
2022-08-17T23:31:59.778Z,47.22
2022-08-17T23:34:27.998Z,47.28
2022-08-17T23:36:56.732Z,47.44
2022-08-17T23:39:27.631Z,47.57
2022-08-17T23:41:56.177Z,47.62
2022-08-17T23:44:24.281Z,47.67
2022-08-17T23:46:51.831Z,47.49
2022-08-17T23:49:19.797Z,47.50
2022-08-17T23:51:47.462Z,48.17
2022-08-17T23:54:19.429Z,47.90
2022-08-17T23:56:47.326Z,47.93
2022-08-17T23:59:14.816Z,47.83
